sensor_id;sensor_type;location;lat;lon;timestamp;pressure;altitude;pressure_sealevel;temperature;humidity
62510;BME280;48558;48.242;11.654;2023-03-17T00:02:17;96194.69;;;0.68;100.00
62510;BME280;48558;48.242;11.654;2023-03-17T00:06:34;96186.69;;;0.51;100.00
62510;BME280;48558;48.242;11.654;2023-03-17T00:10:49;96172.72;;;0.45;100.00
62510;BME280;48558;48.242;11.654;2023-03-17T00:15:02;96192.13;;;0.51;100.00
62510;BME280;48558;48.242;11.654;2023-03-17T00:19:17;96125.31;;;0.02;100.00
62510;BME280;48558;48.242;11.654;2023-03-17T00:23:34;96169.72;;;0.33;100.00
62510;BME280;48558;48.242;11.654;2023-03-17T00:27:47;96135.31;;;0.16;100.00
62510;BME280;48558;48.242;11.654;2023-03-17T00:32:00;96130.22;;;0.25;100.00
62510;BME280;48558;48.242;11.654;2023-03-17T00:36:21;96171.97;;;0.45;100.00
62510;BME280;48558;48.242;11.654;2023-03-17T00:40:35;96167.34;;;0.42;100.00
62510;BME280;48558;48.242;11.654;2023-03-17T00:44:48;96141.81;;;0.29;100.00
62510;BME280;48558;48.242;11.654;2023-03-17T00:49:03;96156.81;;;0.47;100.00
62510;BME280;48558;48.242;11.654;2023-03-17T00:53:32;96144.88;;;0.34;100.00
62510;BME280;48558;48.242;11.654;2023-03-17T00:57:46;96146.75;;;0.41;100.00
62510;BME280;48558;48.242;11.654;2023-03-17T01:01:59;96129.75;;;0.33;100.00
62510;BME280;48558;48.242;11.654;2023-03-17T01:06:13;96042.84;;;-0.22;100.00
62510;BME280;48558;48.242;11.654;2023-03-17T01:10:27;96137.84;;;0.37;100.00
62510;BME280;48558;48.242;11.654;2023-03-17T01:14:41;96125.19;;;0.16;100.00
62510;BME280;48558;48.242;11.654;2023-03-17T01:18:54;96095.88;;;-0.07;100.00
62510;BME280;48558;48.242;11.654;2023-03-17T01:23:08;96100.16;;;-0.06;100.00
62510;BME280;48558;48.242;11.654;2023-03-17T01:27:21;96084.34;;;-0.21;100.00
62510;BME280;48558;48.242;11.654;2023-03-17T01:31:34;96082.41;;;-0.21;100.00
62510;BME280;48558;48.242;11.654;2023-03-17T01:35:49;96107.19;;;-0.12;100.00
62510;BME280;48558;48.242;11.654;2023-03-17T01:40:21;96088.66;;;-0.31;100.00
62510;BME280;48558;48.242;11.654;2023-03-17T01:44:56;96087.94;;;-0.38;100.00
62510;BME280;48558;48.242;11.654;2023-03-17T01:49:32;96090.97;;;-0.26;100.00
62510;BME280;48558;48.242;11.654;2023-03-17T01:53:48;96085.53;;;-0.29;100.00
62510;BME280;48558;48.242;11.654;2023-03-17T01:58:02;96089.78;;;-0.25;100.00
62510;BME280;48558;48.242;11.654;2023-03-17T02:02:19;96046.13;;;-0.48;100.00
62510;BME280;48558;48.242;11.654;2023-03-17T02:06:35;96087.19;;;-0.39;100.00
62510;BME280;48558;48.242;11.654;2023-03-17T02:11:05;96021.47;;;-0.75;100.00
62510;BME280;48558;48.242;11.654;2023-03-17T02:15:18;96052.38;;;-0.58;100.00
62510;BME280;48558;48.242;11.654;2023-03-17T02:19:31;96055.50;;;-0.59;100.00
62510;BME280;48558;48.242;11.654;2023-03-17T02:23:44;96033.44;;;-0.65;100.00
62510;BME280;48558;48.242;11.654;2023-03-17T02:28:01;96045.00;;;-0.54;100.00
62510;BME280;48558;48.242;11.654;2023-03-17T02:32:19;96053.09;;;-0.47;100.00
62510;BME280;48558;48.242;11.654;2023-03-17T02:36:32;96035.31;;;-0.58;100.00
62510;BME280;48558;48.242;11.654;2023-03-17T02:40:45;96039.22;;;-0.63;100.00
62510;BME280;48558;48.242;11.654;2023-03-17T02:45:03;96028.38;;;-0.63;100.00
62510;BME280;48558;48.242;11.654;2023-03-17T02:49:20;96017.44;;;-0.45;100.00
62510;BME280;48558;48.242;11.654;2023-03-17T02:53:33;96036.75;;;-0.36;100.00
62510;BME280;48558;48.242;11.654;2023-03-17T02:57:46;96025.81;;;-0.29;100.00
62510;BME280;48558;48.242;11.654;2023-03-17T03:01:58;96028.47;;;-0.19;100.00
62510;BME280;48558;48.242;11.654;2023-03-17T03:06:12;96023.47;;;-0.24;100.00
62510;BME280;48558;48.242;11.654;2023-03-17T03:10:24;96005.31;;;-0.30;100.00
62510;BME280;48558;48.242;11.654;2023-03-17T03:14:37;96009.50;;;-0.22;100.00
62510;BME280;48558;48.242;11.654;2023-03-17T03:18:49;96014.06;;;-0.12;100.00
62510;BME280;48558;48.242;11.654;2023-03-17T03:23:03;96016.31;;;-0.04;100.00
62510;BME280;48558;48.242;11.654;2023-03-17T03:27:25;96005.03;;;0.02;100.00
62510;BME280;48558;48.242;11.654;2023-03-17T03:31:38;96008.91;;;0.04;100.00
62510;BME280;48558;48.242;11.654;2023-03-17T03:35:50;96013.88;;;0.13;100.00
62510;BME280;48558;48.242;11.654;2023-03-17T03:40:04;96011.56;;;0.11;100.00
62510;BME280;48558;48.242;11.654;2023-03-17T03:44:18;96010.78;;;0.11;100.00
62510;BME280;48558;48.242;11.654;2023-03-17T03:48:30;96017.38;;;0.10;100.00
62510;BME280;48558;48.242;11.654;2023-03-17T03:52:44;96012.31;;;0.12;100.00
62510;BME280;48558;48.242;11.654;2023-03-17T03:56:56;96011.50;;;0.15;100.00
62510;BME280;48558;48.242;11.654;2023-03-17T04:01:09;96000.59;;;0.18;100.00
62510;BME280;48558;48.242;11.654;2023-03-17T04:05:21;95992.44;;;0.22;100.00
62510;BME280;48558;48.242;11.654;2023-03-17T04:09:35;95998.22;;;0.24;100.00
62510;BME280;48558;48.242;11.654;2023-03-17T04:13:48;95989.59;;;0.32;100.00
62510;BME280;48558;48.242;11.654;2023-03-17T04:18:00;96002.72;;;0.41;100.00
62510;BME280;48558;48.242;11.654;2023-03-17T04:22:13;96007.72;;;0.46;100.00
62510;BME280;48558;48.242;11.654;2023-03-17T04:26:26;95979.56;;;0.29;100.00
62510;BME280;48558;48.242;11.654;2023-03-17T04:30:38;96002.56;;;0.58;100.00
62510;BME280;48558;48.242;11.654;2023-03-17T04:34:51;95990.91;;;0.58;100.00
62510;BME280;48558;48.242;11.654;2023-03-17T04:39:03;95994.56;;;0.41;100.00
62510;BME280;48558;48.242;11.654;2023-03-17T04:43:25;96013.16;;;0.46;100.00
62510;BME280;48558;48.242;11.654;2023-03-17T04:47:38;95997.25;;;0.44;100.00
62510;BME280;48558;48.242;11.654;2023-03-17T04:51:50;96012.00;;;0.47;100.00
62510;BME280;48558;48.242;11.654;2023-03-17T04:56:03;96006.19;;;0.45;100.00
62510;BME280;48558;48.242;11.654;2023-03-17T05:00:16;96006.63;;;0.36;100.00
62510;BME280;48558;48.242;11.654;2023-03-17T05:04:29;95998.97;;;0.28;100.00
62510;BME280;48558;48.242;11.654;2023-03-17T05:08:43;95992.03;;;0.23;100.00
62510;BME280;48558;48.242;11.654;2023-03-17T05:12:56;95993.66;;;0.17;100.00
62510;BME280;48558;48.242;11.654;2023-03-17T05:17:09;96009.50;;;0.22;100.00
62510;BME280;48558;48.242;11.654;2023-03-17T05:21:22;96001.13;;;0.03;100.00
62510;BME280;48558;48.242;11.654;2023-03-17T05:25:34;95992.25;;;-0.02;100.00
62510;BME280;48558;48.242;11.654;2023-03-17T05:29:47;95989.97;;;-0.07;100.00
62510;BME280;48558;48.242;11.654;2023-03-17T05:34:00;96000.09;;;-0.11;100.00
62510;BME280;48558;48.242;11.654;2023-03-17T05:38:23;95998.78;;;0.05;100.00
62510;BME280;48558;48.242;11.654;2023-03-17T05:42:43;95990.88;;;0.24;100.00
62510;BME280;48558;48.242;11.654;2023-03-17T05:46:55;95990.31;;;0.40;100.00
62510;BME280;48558;48.242;11.654;2023-03-17T05:51:20;95986.19;;;0.62;100.00
62510;BME280;48558;48.242;11.654;2023-03-17T05:55:41;95977.91;;;0.72;100.00
62510;BME280;48558;48.242;11.654;2023-03-17T05:59:54;95982.72;;;0.92;100.00
62510;BME280;48558;48.242;11.654;2023-03-17T06:04:07;95996.00;;;1.16;100.00
62510;BME280;48558;48.242;11.654;2023-03-17T06:08:19;95978.59;;;1.10;100.00
62510;BME280;48558;48.242;11.654;2023-03-17T06:12:32;95992.94;;;1.41;100.00
62510;BME280;48558;48.242;11.654;2023-03-17T06:16:45;95983.03;;;1.54;100.00
62510;BME280;48558;48.242;11.654;2023-03-17T06:20:58;95996.34;;;1.49;100.00
62510;BME280;48558;48.242;11.654;2023-03-17T06:25:10;95987.56;;;1.64;100.00
62510;BME280;48558;48.242;11.654;2023-03-17T06:29:23;95988.09;;;1.56;100.00
62510;BME280;48558;48.242;11.654;2023-03-17T06:33:35;95980.31;;;1.54;100.00
62510;BME280;48558;48.242;11.654;2023-03-17T06:37:55;95980.25;;;1.58;100.00
62510;BME280;48558;48.242;11.654;2023-03-17T06:42:08;95989.84;;;1.66;100.00
62510;BME280;48558;48.242;11.654;2023-03-17T06:46:21;95989.00;;;1.45;100.00
62510;BME280;48558;48.242;11.654;2023-03-17T06:50:33;95978.94;;;1.69;100.00
62510;BME280;48558;48.242;11.654;2023-03-17T06:54:46;95980.00;;;1.75;100.00
62510;BME280;48558;48.242;11.654;2023-03-17T06:58:58;95985.50;;;1.95;100.00
62510;BME280;48558;48.242;11.654;2023-03-17T07:03:21;95966.31;;;2.02;100.00
62510;BME280;48558;48.242;11.654;2023-03-17T07:07:35;95983.09;;;2.24;100.00
62510;BME280;48558;48.242;11.654;2023-03-17T07:11:49;95980.38;;;2.43;100.00
62510;BME280;48558;48.242;11.654;2023-03-17T07:16:03;95987.63;;;2.53;100.00
62510;BME280;48558;48.242;11.654;2023-03-17T07:20:16;95982.34;;;2.62;100.00
62510;BME280;48558;48.242;11.654;2023-03-17T07:24:29;95983.69;;;2.74;100.00
62510;BME280;48558;48.242;11.654;2023-03-17T07:28:42;95988.59;;;3.02;100.00
62510;BME280;48558;48.242;11.654;2023-03-17T07:32:55;95990.53;;;3.21;100.00
62510;BME280;48558;48.242;11.654;2023-03-17T07:37:08;95981.78;;;3.30;100.00
62510;BME280;48558;48.242;11.654;2023-03-17T07:41:22;95986.91;;;3.44;100.00
62510;BME280;48558;48.242;11.654;2023-03-17T07:45:36;95977.91;;;3.63;100.00
62510;BME280;48558;48.242;11.654;2023-03-17T07:49:48;95999.72;;;3.99;100.00
62510;BME280;48558;48.242;11.654;2023-03-17T07:54:01;95985.19;;;4.18;100.00
62510;BME280;48558;48.242;11.654;2023-03-17T07:58:17;96000.34;;;4.51;100.00
62510;BME280;48558;48.242;11.654;2023-03-17T08:02:30;95994.25;;;4.60;100.00
62510;BME280;48558;48.242;11.654;2023-03-17T08:06:43;95978.59;;;4.76;100.00
62510;BME280;48558;48.242;11.654;2023-03-17T08:11:01;95991.00;;;5.35;100.00
62510;BME280;48558;48.242;11.654;2023-03-17T08:15:15;95998.47;;;5.47;100.00
62510;BME280;48558;48.242;11.654;2023-03-17T08:19:27;95984.13;;;5.68;100.00
62510;BME280;48558;48.242;11.654;2023-03-17T08:23:50;95991.72;;;5.89;100.00
62510;BME280;48558;48.242;11.654;2023-03-17T08:28:03;95991.56;;;6.30;100.00
62510;BME280;48558;48.242;11.654;2023-03-17T08:32:23;95984.78;;;6.22;100.00
62510;BME280;48558;48.242;11.654;2023-03-17T08:36:36;95990.38;;;6.66;100.00
62510;BME280;48558;48.242;11.654;2023-03-17T08:40:48;95949.16;;;7.00;100.00
62510;BME280;48558;48.242;11.654;2023-03-17T08:45:06;95969.22;;;7.62;100.00
62510;BME280;48558;48.242;11.654;2023-03-17T08:49:22;95971.13;;;7.83;100.00
62510;BME280;48558;48.242;11.654;2023-03-17T08:53:35;95970.09;;;8.29;100.00
62510;BME280;48558;48.242;11.654;2023-03-17T08:57:48;95977.78;;;8.52;100.00
62510;BME280;48558;48.242;11.654;2023-03-17T09:02:01;95977.81;;;8.80;100.00
62510;BME280;48558;48.242;11.654;2023-03-17T09:06:13;95966.81;;;9.58;96.76
62510;BME280;48558;48.242;11.654;2023-03-17T09:10:26;95988.72;;;10.12;82.75
62510;BME280;48558;48.242;11.654;2023-03-17T09:14:40;95979.94;;;10.94;72.27
62510;BME280;48558;48.242;11.654;2023-03-17T09:18:55;95980.72;;;10.70;78.67
62510;BME280;48558;48.242;11.654;2023-03-17T09:23:09;95969.94;;;10.96;69.77
62510;BME280;48558;48.242;11.654;2023-03-17T09:27:21;95951.69;;;11.86;70.85
62510;BME280;48558;48.242;11.654;2023-03-17T09:31:34;95953.75;;;12.41;72.24
62510;BME280;48558;48.242;11.654;2023-03-17T09:35:50;95959.09;;;12.64;69.20
62510;BME280;48558;48.242;11.654;2023-03-17T09:40:05;95948.75;;;13.25;65.45
62510;BME280;48558;48.242;11.654;2023-03-17T09:44:28;95934.78;;;13.97;63.36
62510;BME280;48558;48.242;11.654;2023-03-17T09:49:01;95933.41;;;14.55;59.86
62510;BME280;48558;48.242;11.654;2023-03-17T09:53:24;95919.69;;;13.72;65.39
62510;BME280;48558;48.242;11.654;2023-03-17T09:57:39;95922.19;;;14.01;61.96
62510;BME280;48558;48.242;11.654;2023-03-17T10:01:52;95922.56;;;14.20;63.44
62510;BME280;48558;48.242;11.654;2023-03-17T10:06:31;95918.03;;;13.54;68.30
62510;BME280;48558;48.242;11.654;2023-03-17T10:11:07;95919.53;;;14.66;58.93
62510;BME280;48558;48.242;11.654;2023-03-17T10:20:14;95926.72;;;14.83;58.48
62510;BME280;48558;48.242;11.654;2023-03-17T10:24:29;95930.16;;;14.62;56.77
62510;BME280;48558;48.242;11.654;2023-03-17T10:28:43;95926.81;;;15.22;65.88
62510;BME280;48558;48.242;11.654;2023-03-17T10:32:59;95909.97;;;15.98;57.69
62510;BME280;48558;48.242;11.654;2023-03-17T10:37:19;95905.88;;;15.43;57.32
62510;BME280;48558;48.242;11.654;2023-03-17T10:41:38;95900.34;;;15.88;60.24
62510;BME280;48558;48.242;11.654;2023-03-17T10:46:03;95902.63;;;16.00;60.22
62510;BME280;48558;48.242;11.654;2023-03-17T10:50:21;95911.00;;;15.78;53.00
62510;BME280;48558;48.242;11.654;2023-03-17T10:54:36;95911.47;;;16.15;56.78
62510;BME280;48558;48.242;11.654;2023-03-17T10:58:51;95912.47;;;16.29;52.58
62510;BME280;48558;48.242;11.654;2023-03-17T11:03:17;95904.72;;;17.77;49.11
62510;BME280;48558;48.242;11.654;2023-03-17T11:07:39;95906.19;;;17.43;49.73
62510;BME280;48558;48.242;11.654;2023-03-17T11:12:06;95902.91;;;18.10;45.78
62510;BME280;48558;48.242;11.654;2023-03-17T11:16:33;95906.41;;;17.51;54.79
62510;BME280;48558;48.242;11.654;2023-03-17T11:21:01;95891.47;;;17.43;54.23
62510;BME280;48558;48.242;11.654;2023-03-17T11:25:20;95874.28;;;17.98;49.45
62510;BME280;48558;48.242;11.654;2023-03-17T11:29:50;95868.09;;;17.81;49.06
62510;BME280;48558;48.242;11.654;2023-03-17T11:34:28;95873.94;;;18.80;46.00
62510;BME280;48558;48.242;11.654;2023-03-17T11:44:23;95879.06;;;17.33;51.66
62510;BME280;48558;48.242;11.654;2023-03-17T11:58:26;95856.34;;;18.85;49.95
62510;BME280;48558;48.242;11.654;2023-03-17T12:02:52;95849.22;;;18.84;48.60
62510;BME280;48558;48.242;11.654;2023-03-17T12:07:18;95838.78;;;18.84;46.81
62510;BME280;48558;48.242;11.654;2023-03-17T12:11:39;95840.94;;;18.73;47.11
62510;BME280;48558;48.242;11.654;2023-03-17T12:15:59;95843.75;;;19.47;47.73
62510;BME280;48558;48.242;11.654;2023-03-17T12:20:47;95831.28;;;19.48;42.66
62510;BME280;48558;48.242;11.654;2023-03-17T12:25:23;95832.69;;;18.61;47.51
62510;BME280;48558;48.242;11.654;2023-03-17T12:30:02;95829.88;;;17.89;47.69
62510;BME280;48558;48.242;11.654;2023-03-17T12:34:27;95830.72;;;17.49;46.79
62510;BME280;48558;48.242;11.654;2023-03-17T12:52:18;95799.81;;;19.05;48.33
62510;BME280;48558;48.242;11.654;2023-03-17T12:57:01;95801.78;;;19.60;47.58
62510;BME280;48558;48.242;11.654;2023-03-17T13:01:42;95791.22;;;19.66;44.09
62510;BME280;48558;48.242;11.654;2023-03-17T13:06:15;95789.81;;;19.09;46.49
62510;BME280;48558;48.242;11.654;2023-03-17T13:10:44;95774.63;;;18.43;46.28
62510;BME280;48558;48.242;11.654;2023-03-17T13:14:59;95782.00;;;19.02;47.54
62510;BME280;48558;48.242;11.654;2023-03-17T13:19:23;95777.97;;;19.67;46.47
62510;BME280;48558;48.242;11.654;2023-03-17T13:23:56;95770.97;;;18.73;43.89
62510;BME280;48558;48.242;11.654;2023-03-17T13:28:15;95775.41;;;19.37;45.22
62510;BME280;48558;48.242;11.654;2023-03-17T13:32:35;95769.81;;;19.95;44.39
62510;BME280;48558;48.242;11.654;2023-03-17T13:41:49;95770.97;;;19.73;46.56
62510;BME280;48558;48.242;11.654;2023-03-17T13:46:38;95765.81;;;18.95;45.83
62510;BME280;48558;48.242;11.654;2023-03-17T13:51:16;95764.09;;;18.74;45.02
62510;BME280;48558;48.242;11.654;2023-03-17T13:55:35;95754.81;;;18.41;45.77
62510;BME280;48558;48.242;11.654;2023-03-17T13:59:54;95751.25;;;18.41;48.96
62510;BME280;48558;48.242;11.654;2023-03-17T14:04:18;95758.88;;;18.65;47.44
62510;BME280;48558;48.242;11.654;2023-03-17T14:08:41;95753.72;;;19.06;48.95
62510;BME280;48558;48.242;11.654;2023-03-17T14:18:07;95724.50;;;19.01;47.82
62510;BME280;48558;48.242;11.654;2023-03-17T14:22:24;95735.69;;;19.20;46.53
62510;BME280;48558;48.242;11.654;2023-03-17T14:26:36;95731.50;;;18.95;46.12
62510;BME280;48558;48.242;11.654;2023-03-17T14:30:51;95730.94;;;19.28;45.22
62510;BME280;48558;48.242;11.654;2023-03-17T14:35:16;95743.91;;;18.81;48.28
62510;BME280;48558;48.242;11.654;2023-03-17T14:39:30;95734.88;;;19.38;47.08
62510;BME280;48558;48.242;11.654;2023-03-17T14:43:43;95719.88;;;18.53;47.56
62510;BME280;48558;48.242;11.654;2023-03-17T14:47:56;95726.19;;;17.09;52.56
62510;BME280;48558;48.242;11.654;2023-03-17T14:52:18;95721.50;;;16.52;54.99
62510;BME280;48558;48.242;11.654;2023-03-17T14:56:41;95710.88;;;16.91;54.49
62510;BME280;48558;48.242;11.654;2023-03-17T15:01:11;95724.09;;;16.33;56.24
62510;BME280;48558;48.242;11.654;2023-03-17T15:05:40;95718.97;;;16.48;57.35
62510;BME280;48558;48.242;11.654;2023-03-17T15:09:58;95712.34;;;16.57;58.64
62510;BME280;48558;48.242;11.654;2023-03-17T15:14:21;95704.50;;;16.50;57.13
62510;BME280;48558;48.242;11.654;2023-03-17T15:18:40;95703.09;;;16.32;56.98
62510;BME280;48558;48.242;11.654;2023-03-17T15:22:57;95697.47;;;16.38;58.71
62510;BME280;48558;48.242;11.654;2023-03-17T15:27:20;95701.41;;;16.13;55.64
62510;BME280;48558;48.242;11.654;2023-03-17T15:31:33;95688.72;;;16.17;55.52
62510;BME280;48558;48.242;11.654;2023-03-17T15:35:51;95697.41;;;15.97;54.21
62510;BME280;48558;48.242;11.654;2023-03-17T15:40:04;95687.22;;;16.16;54.69
62510;BME280;48558;48.242;11.654;2023-03-17T15:44:18;95680.84;;;16.21;53.47
62510;BME280;48558;48.242;11.654;2023-03-17T15:48:33;95691.81;;;16.49;51.58
62510;BME280;48558;48.242;11.654;2023-03-17T15:52:57;95684.81;;;16.37;51.55
62510;BME280;48558;48.242;11.654;2023-03-17T15:57:10;95692.59;;;15.98;53.88
62510;BME280;48558;48.242;11.654;2023-03-17T16:01:24;95690.25;;;16.13;56.29
62510;BME280;48558;48.242;11.654;2023-03-17T16:05:38;95679.56;;;15.59;54.69
62510;BME280;48558;48.242;11.654;2023-03-17T16:09:51;95673.53;;;15.28;54.42
62510;BME280;48558;48.242;11.654;2023-03-17T16:14:03;95673.81;;;15.13;54.69
62510;BME280;48558;48.242;11.654;2023-03-17T16:18:29;95677.38;;;15.02;56.29
62510;BME280;48558;48.242;11.654;2023-03-17T16:22:43;95669.00;;;14.53;61.70
62510;BME280;48558;48.242;11.654;2023-03-17T16:26:55;95666.19;;;14.36;64.96
62510;BME280;48558;48.242;11.654;2023-03-17T16:31:21;95656.88;;;14.45;62.37
62510;BME280;48558;48.242;11.654;2023-03-17T16:35:37;95667.09;;;13.94;67.64
62510;BME280;48558;48.242;11.654;2023-03-17T16:39:49;95668.88;;;13.44;72.66
62510;BME280;48558;48.242;11.654;2023-03-17T16:44:03;95663.41;;;13.13;76.88
62510;BME280;48558;48.242;11.654;2023-03-17T16:48:17;95662.81;;;13.03;80.08
62510;BME280;48558;48.242;11.654;2023-03-17T16:52:30;95664.50;;;12.58;85.70
62510;BME280;48558;48.242;11.654;2023-03-17T16:56:43;95662.75;;;12.35;90.28
62510;BME280;48558;48.242;11.654;2023-03-17T17:00:59;95665.88;;;12.17;91.68
62510;BME280;48558;48.242;11.654;2023-03-17T17:05:26;95657.09;;;11.73;96.40
62510;BME280;48558;48.242;11.654;2023-03-17T17:09:40;95657.56;;;11.51;98.69
62510;BME280;48558;48.242;11.654;2023-03-17T17:13:52;95667.16;;;11.35;100.00
62510;BME280;48558;48.242;11.654;2023-03-17T17:18:14;95675.75;;;11.03;100.00
62510;BME280;48558;48.242;11.654;2023-03-17T17:22:32;95678.88;;;11.10;100.00
62510;BME280;48558;48.242;11.654;2023-03-17T17:26:45;95675.53;;;10.71;100.00
62510;BME280;48558;48.242;11.654;2023-03-17T17:31:07;95675.66;;;10.62;100.00
62510;BME280;48558;48.242;11.654;2023-03-17T17:35:20;95670.41;;;10.35;100.00
62510;BME280;48558;48.242;11.654;2023-03-17T17:39:32;95668.78;;;10.14;100.00
62510;BME280;48558;48.242;11.654;2023-03-17T17:43:45;95670.81;;;10.04;100.00
62510;BME280;48558;48.242;11.654;2023-03-17T17:48:09;95664.66;;;10.09;100.00
62510;BME280;48558;48.242;11.654;2023-03-17T17:52:22;95672.44;;;9.96;100.00
62510;BME280;48558;48.242;11.654;2023-03-17T17:56:34;95669.00;;;9.87;100.00
62510;BME280;48558;48.242;11.654;2023-03-17T18:00:51;95650.84;;;9.57;100.00
62510;BME280;48558;48.242;11.654;2023-03-17T18:05:06;95659.53;;;9.64;100.00
62510;BME280;48558;48.242;11.654;2023-03-17T18:09:20;95665.59;;;9.54;100.00
62510;BME280;48558;48.242;11.654;2023-03-17T18:13:33;95665.75;;;9.74;100.00
62510;BME280;48558;48.242;11.654;2023-03-17T18:17:49;95672.66;;;9.31;100.00
62510;BME280;48558;48.242;11.654;2023-03-17T18:22:03;95679.44;;;9.21;100.00
62510;BME280;48558;48.242;11.654;2023-03-17T18:26:16;95670.69;;;8.99;100.00
62510;BME280;48558;48.242;11.654;2023-03-17T18:30:30;95661.09;;;8.61;100.00
62510;BME280;48558;48.242;11.654;2023-03-17T18:34:59;95665.31;;;8.39;100.00
62510;BME280;48558;48.242;11.654;2023-03-17T18:39:21;95666.56;;;8.11;100.00
62510;BME280;48558;48.242;11.654;2023-03-17T18:43:33;95671.00;;;7.99;100.00
62510;BME280;48558;48.242;11.654;2023-03-17T18:47:47;95680.94;;;7.87;100.00
62510;BME280;48558;48.242;11.654;2023-03-17T18:52:00;95672.25;;;7.80;100.00
62510;BME280;48558;48.242;11.654;2023-03-17T18:56:12;95662.94;;;7.50;100.00
62510;BME280;48558;48.242;11.654;2023-03-17T19:00:25;95695.16;;;7.50;100.00
62510;BME280;48558;48.242;11.654;2023-03-17T19:04:38;95694.53;;;7.37;100.00
62510;BME280;48558;48.242;11.654;2023-03-17T19:08:57;95688.56;;;7.20;100.00
62510;BME280;48558;48.242;11.654;2023-03-17T19:13:09;95691.56;;;7.04;100.00
62510;BME280;48558;48.242;11.654;2023-03-17T19:17:22;95690.28;;;6.78;100.00
62510;BME280;48558;48.242;11.654;2023-03-17T19:21:34;95691.03;;;6.69;100.00
62510;BME280;48558;48.242;11.654;2023-03-17T19:25:47;95695.16;;;6.74;100.00
62510;BME280;48558;48.242;11.654;2023-03-17T19:30:00;95690.66;;;6.58;100.00
62510;BME280;48558;48.242;11.654;2023-03-17T19:34:13;95701.00;;;6.54;100.00
62510;BME280;48558;48.242;11.654;2023-03-17T19:38:26;95699.66;;;6.28;100.00
62510;BME280;48558;48.242;11.654;2023-03-17T19:42:47;95699.66;;;6.28;100.00
62510;BME280;48558;48.242;11.654;2023-03-17T19:47:00;95693.75;;;6.08;100.00
62510;BME280;48558;48.242;11.654;2023-03-17T19:51:16;95724.88;;;6.14;100.00
62510;BME280;48558;48.242;11.654;2023-03-17T19:55:29;95719.16;;;5.99;100.00
62510;BME280;48558;48.242;11.654;2023-03-17T19:59:42;95718.00;;;5.75;100.00
62510;BME280;48558;48.242;11.654;2023-03-17T20:03:54;95707.19;;;5.71;100.00
62510;BME280;48558;48.242;11.654;2023-03-17T20:08:07;95709.59;;;5.69;100.00
62510;BME280;48558;48.242;11.654;2023-03-17T20:12:20;95708.19;;;5.65;100.00
62510;BME280;48558;48.242;11.654;2023-03-17T20:16:33;95711.69;;;5.65;100.00
62510;BME280;48558;48.242;11.654;2023-03-17T20:20:50;95710.28;;;5.61;100.00
62510;BME280;48558;48.242;11.654;2023-03-17T20:25:13;95690.00;;;5.37;100.00
62510;BME280;48558;48.242;11.654;2023-03-17T20:29:26;95721.38;;;5.57;100.00
62510;BME280;48558;48.242;11.654;2023-03-17T20:33:39;95711.22;;;5.45;100.00
62510;BME280;48558;48.242;11.654;2023-03-17T20:37:51;95716.59;;;5.36;100.00
62510;BME280;48558;48.242;11.654;2023-03-17T20:42:07;95726.59;;;5.30;100.00
62510;BME280;48558;48.242;11.654;2023-03-17T20:46:25;95722.00;;;5.27;100.00
62510;BME280;48558;48.242;11.654;2023-03-17T20:50:38;95729.47;;;5.14;100.00
62510;BME280;48558;48.242;11.654;2023-03-17T20:54:52;95727.97;;;5.00;100.00
62510;BME280;48558;48.242;11.654;2023-03-17T20:59:06;95736.97;;;4.88;100.00
62510;BME280;48558;48.242;11.654;2023-03-17T21:03:20;95731.72;;;4.81;100.00
62510;BME280;48558;48.242;11.654;2023-03-17T21:07:33;95725.34;;;4.84;100.00
62510;BME280;48558;48.242;11.654;2023-03-17T21:11:45;95736.84;;;4.67;100.00
62510;BME280;48558;48.242;11.654;2023-03-17T21:16:00;95753.59;;;4.56;100.00
62510;BME280;48558;48.242;11.654;2023-03-17T21:20:14;95744.63;;;4.43;100.00
62510;BME280;48558;48.242;11.654;2023-03-17T21:24:29;95757.09;;;4.44;100.00
62510;BME280;48558;48.242;11.654;2023-03-17T21:28:49;95747.44;;;4.40;100.00
62510;BME280;48558;48.242;11.654;2023-03-17T21:33:03;95741.53;;;4.16;100.00
62510;BME280;48558;48.242;11.654;2023-03-17T21:37:16;95747.72;;;4.16;100.00
62510;BME280;48558;48.242;11.654;2023-03-17T21:41:34;95753.31;;;4.13;100.00
62510;BME280;48558;48.242;11.654;2023-03-17T21:45:58;95755.72;;;4.11;100.00
62510;BME280;48558;48.242;11.654;2023-03-17T21:50:12;95740.81;;;3.99;100.00
62510;BME280;48558;48.242;11.654;2023-03-17T21:54:27;95759.94;;;3.99;100.00
62510;BME280;48558;48.242;11.654;2023-03-17T21:58:41;95759.81;;;3.90;100.00
62510;BME280;48558;48.242;11.654;2023-03-17T22:02:54;95774.09;;;3.82;100.00
62510;BME280;48558;48.242;11.654;2023-03-17T22:07:07;95787.13;;;3.90;100.00
62510;BME280;48558;48.242;11.654;2023-03-17T22:11:20;95782.63;;;3.84;100.00
62510;BME280;48558;48.242;11.654;2023-03-17T22:15:32;95760.81;;;3.68;100.00
62510;BME280;48558;48.242;11.654;2023-03-17T22:19:45;95773.88;;;3.60;100.00
62510;BME280;48558;48.242;11.654;2023-03-17T22:23:59;95748.31;;;3.38;100.00
62510;BME280;48558;48.242;11.654;2023-03-17T22:28:12;95779.03;;;3.42;100.00
62510;BME280;48558;48.242;11.654;2023-03-17T22:32:34;95779.91;;;3.39;100.00
62510;BME280;48558;48.242;11.654;2023-03-17T22:36:47;95779.19;;;3.35;100.00
62510;BME280;48558;48.242;11.654;2023-03-17T22:41:01;95792.00;;;3.38;100.00
62510;BME280;48558;48.242;11.654;2023-03-17T22:45:23;95788.84;;;3.39;100.00
62510;BME280;48558;48.242;11.654;2023-03-17T22:49:36;95783.38;;;3.39;100.00
62510;BME280;48558;48.242;11.654;2023-03-17T22:53:49;95795.19;;;3.36;100.00
62510;BME280;48558;48.242;11.654;2023-03-17T22:58:08;95792.69;;;3.26;100.00
62510;BME280;48558;48.242;11.654;2023-03-17T23:02:20;95783.59;;;3.16;100.00